createdAt,value
2023-03-07T00:00:06.114Z,9.60
2023-03-07T00:02:35.994Z,10.83
2023-03-07T00:05:04.715Z,9.30
2023-03-07T00:07:33.911Z,9.50
2023-03-07T00:10:02.300Z,9.43
2023-03-07T00:12:30.819Z,9.50
2023-03-07T00:14:59.249Z,10.67
2023-03-07T00:17:27.792Z,8.90
2023-03-07T00:19:57.493Z,10.90
2023-03-07T00:22:25.885Z,9.73
2023-03-07T00:24:54.308Z,9.93
2023-03-07T00:27:22.637Z,10.17
2023-03-07T00:29:51.165Z,8.67
2023-03-07T00:32:19.750Z,9.03
2023-03-07T00:34:48.139Z,8.80
2023-03-07T00:37:18.156Z,9.30
2023-03-07T00:39:46.451Z,8.70
2023-03-07T00:42:14.795Z,8.80
2023-03-07T00:44:43.282Z,8.70
2023-03-07T00:47:11.877Z,8.33
2023-03-07T00:49:40.227Z,8.73
2023-03-07T00:52:08.532Z,8.63
2023-03-07T00:54:38.275Z,8.37
2023-03-07T00:57:06.655Z,9.40
2023-03-07T00:59:35.173Z,9.40
2023-03-07T01:02:03.570Z,8.63
2023-03-07T01:04:31.946Z,9.53
2023-03-07T01:07:00.572Z,8.20
2023-03-07T01:09:29.015Z,9.20
2023-03-07T01:11:58.719Z,8.40
2023-03-07T01:14:27.152Z,8.57
2023-03-07T01:16:55.620Z,8.00
2023-03-07T01:19:24.359Z,8.77
2023-03-07T01:21:52.665Z,8.20
2023-03-07T01:24:21.124Z,7.80
2023-03-07T01:26:49.627Z,9.00
2023-03-07T01:29:19.418Z,10.40
2023-03-07T01:31:47.908Z,9.23
2023-03-07T01:34:16.291Z,8.80
2023-03-07T01:36:44.776Z,8.40
2023-03-07T01:39:14.452Z,8.83
2023-03-07T01:41:43.218Z,8.57
2023-03-07T01:44:17.257Z,8.70
2023-03-07T01:46:48.679Z,8.90
2023-03-07T01:49:23.021Z,7.67
2023-03-07T01:51:53.143Z,8.80
2023-03-07T01:54:22.459Z,7.53
2023-03-07T01:56:50.781Z,7.43
2023-03-07T01:59:21.412Z,8.90
2023-03-07T02:01:52.199Z,8.50
2023-03-07T02:04:21.964Z,8.27
2023-03-07T02:06:50.388Z,8.03
2023-03-07T02:09:20.636Z,8.43
2023-03-07T02:11:49.778Z,8.73
2023-03-07T02:14:18.169Z,8.10
2023-03-07T02:16:47.297Z,8.70
2023-03-07T02:19:24.105Z,7.70
2023-03-07T02:21:55.255Z,7.27
2023-03-07T02:24:27.329Z,7.73
2023-03-07T02:26:57.336Z,7.60
2023-03-07T02:29:25.777Z,7.97
2023-03-07T02:31:54.192Z,8.50
2023-03-07T02:34:23.463Z,8.13
2023-03-07T02:36:54.487Z,7.07
2023-03-07T02:39:25.722Z,7.70
2023-03-07T02:41:55.085Z,8.13
2023-03-07T02:44:24.837Z,7.90
2023-03-07T02:46:53.386Z,9.33
2023-03-07T02:49:21.754Z,8.47
2023-03-07T02:51:50.194Z,7.93
2023-03-07T02:54:18.487Z,8.10
2023-03-07T02:56:46.836Z,8.00
2023-03-07T02:59:15.228Z,7.07
2023-03-07T03:01:45.081Z,7.93
2023-03-07T03:04:13.566Z,7.07
2023-03-07T03:06:41.890Z,8.73
2023-03-07T03:09:10.324Z,7.47
2023-03-07T03:11:38.704Z,6.73
2023-03-07T03:14:07.242Z,7.37
2023-03-07T03:16:35.675Z,7.83
2023-03-07T03:19:05.534Z,6.43
2023-03-07T03:21:33.940Z,6.73
2023-03-07T03:24:06.076Z,7.70
2023-03-07T03:26:34.756Z,7.70
2023-03-07T03:29:03.451Z,6.83
2023-03-07T03:31:31.763Z,7.47
2023-03-07T03:34:00.408Z,6.87
2023-03-07T03:36:30.316Z,6.53
2023-03-07T03:38:59.331Z,6.97
2023-03-07T03:41:27.742Z,6.80
2023-03-07T03:43:57.268Z,7.00
2023-03-07T03:46:25.726Z,8.00
2023-03-07T03:48:54.649Z,6.50
2023-03-07T03:51:23.556Z,7.80
2023-03-07T03:53:53.472Z,7.70
2023-03-07T03:56:23.158Z,8.40
2023-03-07T03:58:52.715Z,7.10
2023-03-07T04:01:21.836Z,8.43
2023-03-07T04:03:51.040Z,8.10
2023-03-07T04:06:20.202Z,7.60
2023-03-07T04:08:48.772Z,8.03
2023-03-07T04:11:19.154Z,8.20
2023-03-07T04:13:47.566Z,7.80
2023-03-07T04:16:16.952Z,7.43
2023-03-07T04:18:45.348Z,8.83
2023-03-07T04:21:14.683Z,9.80
2023-03-07T04:23:43.099Z,8.73
2023-03-07T04:26:12.175Z,9.00
2023-03-07T04:28:43.930Z,8.63
2023-03-07T04:31:12.714Z,8.63
2023-03-07T04:33:41.144Z,8.70
2023-03-07T04:36:09.852Z,8.67
2023-03-07T04:38:40.569Z,8.80
2023-03-07T04:41:09.349Z,9.07
2023-03-07T04:43:37.689Z,9.10
2023-03-07T04:46:07.900Z,9.00
2023-03-07T04:48:36.510Z,9.77
2023-03-07T04:51:05.107Z,8.63
2023-03-07T04:53:33.572Z,8.10
2023-03-07T04:56:02.493Z,9.27
2023-03-07T04:58:31.124Z,9.30
2023-03-07T05:00:59.833Z,8.40
2023-03-07T05:03:29.905Z,8.73
2023-03-07T05:06:02.620Z,10.23
2023-03-07T05:08:31.194Z,10.10
2023-03-07T05:10:59.544Z,8.73
2023-03-07T05:13:27.972Z,9.83
2023-03-07T05:15:56.996Z,9.27
2023-03-07T05:18:25.531Z,9.77
2023-03-07T05:20:55.239Z,10.10
2023-03-07T05:23:23.800Z,9.73
2023-03-07T05:25:52.253Z,10.27
2023-03-07T05:28:20.729Z,9.67
2023-03-07T05:30:49.633Z,10.53
2023-03-07T05:33:18.085Z,8.40
2023-03-07T05:35:46.904Z,9.33
2023-03-07T05:38:16.747Z,9.23
2023-03-07T05:40:45.126Z,10.40
2023-03-07T05:43:13.544Z,10.13
2023-03-07T05:45:41.838Z,10.63
2023-03-07T05:48:10.254Z,10.20
2023-03-07T05:50:39.321Z,9.17
2023-03-07T05:53:07.886Z,11.00
2023-03-07T05:55:37.809Z,10.20
2023-03-07T05:58:06.135Z,9.77
2023-03-07T06:00:34.424Z,11.30
2023-03-07T06:03:03.898Z,10.27
2023-03-07T06:05:32.614Z,10.57
2023-03-07T06:08:00.978Z,9.53
2023-03-07T06:10:29.361Z,10.53
2023-03-07T06:12:59.089Z,11.00
2023-03-07T06:15:27.444Z,11.10
2023-03-07T06:17:55.927Z,10.10
2023-03-07T06:20:24.363Z,10.80
2023-03-07T06:22:52.683Z,9.57
2023-03-07T06:25:21.820Z,9.20
2023-03-07T06:27:50.465Z,9.57
2023-03-07T06:30:20.439Z,10.50
2023-03-07T06:32:48.689Z,10.97
2023-03-07T06:35:17.136Z,11.33
2023-03-07T06:37:45.568Z,11.20
2023-03-07T06:40:14.150Z,10.10
2023-03-07T06:42:42.529Z,12.10
2023-03-07T06:45:11.206Z,11.40
2023-03-07T06:47:40.906Z,10.43
2023-03-07T06:50:10.081Z,10.33
2023-03-07T06:52:38.466Z,10.10
2023-03-07T06:55:07.409Z,10.60
2023-03-07T06:57:35.718Z,12.27
2023-03-07T07:00:05.277Z,10.20
2023-03-07T07:02:33.660Z,10.73
2023-03-07T07:05:03.876Z,11.23
2023-03-07T07:07:32.377Z,11.43
2023-03-07T07:10:01.462Z,11.60
2023-03-07T07:12:29.931Z,10.70
2023-03-07T07:14:58.244Z,10.83
2023-03-07T07:17:26.543Z,9.80
2023-03-07T07:19:54.875Z,10.60
2023-03-07T07:22:24.835Z,10.07
2023-03-07T07:24:53.209Z,11.50
2023-03-07T07:27:21.637Z,11.10
2023-03-07T07:29:49.970Z,11.30
2023-03-07T07:32:18.490Z,10.37
2023-03-07T07:34:47.000Z,11.13
2023-03-07T07:37:15.410Z,10.50
2023-03-07T07:39:45.303Z,10.03
2023-03-07T07:42:13.606Z,11.17
2023-03-07T07:44:42.191Z,10.23
2023-03-07T07:47:10.605Z,10.60
2023-03-07T07:49:38.953Z,10.93
2023-03-07T07:52:07.271Z,10.80
2023-03-07T07:54:35.651Z,10.70
2023-03-07T07:57:05.618Z,11.03
2023-03-07T07:59:34.293Z,11.00
2023-03-07T08:02:02.795Z,10.97
2023-03-07T08:04:31.269Z,10.80
2023-03-07T08:06:59.632Z,9.97
2023-03-07T08:09:27.952Z,11.13
2023-03-07T08:11:56.327Z,11.23
2023-03-07T08:14:26.134Z,10.80
2023-03-07T08:16:54.568Z,10.47
2023-03-07T08:19:22.932Z,10.60
2023-03-07T08:21:51.300Z,10.20
2023-03-07T08:24:20.734Z,10.90
2023-03-07T08:26:51.656Z,10.87
2023-03-07T08:29:20.175Z,9.93
2023-03-07T08:31:51.894Z,10.07
2023-03-07T08:34:21.439Z,10.50
2023-03-07T08:36:49.882Z,9.80
2023-03-07T08:39:18.204Z,10.60
2023-03-07T08:41:46.636Z,9.97
2023-03-07T08:44:14.874Z,9.87
2023-03-07T08:46:43.325Z,10.67
2023-03-07T08:49:13.500Z,10.67
2023-03-07T08:51:41.907Z,10.17
2023-03-07T08:54:10.306Z,9.13
2023-03-07T08:56:38.682Z,10.57
2023-03-07T08:59:07.062Z,10.50
2023-03-07T09:01:35.446Z,11.03
2023-03-07T09:04:05.111Z,10.53
2023-03-07T09:06:35.012Z,9.90
2023-03-07T09:09:03.504Z,9.80
2023-03-07T09:11:31.872Z,9.80
2023-03-07T09:14:00.344Z,10.00
2023-03-07T09:16:28.833Z,9.90
2023-03-07T09:18:57.224Z,10.67
2023-03-07T09:21:25.650Z,11.30
2023-03-07T09:23:55.358Z,10.27
2023-03-07T09:26:23.632Z,12.43
2023-03-07T09:28:52.099Z,8.70
2023-03-07T09:31:20.633Z,9.53
2023-03-07T09:33:48.925Z,9.13
2023-03-07T09:36:18.409Z,9.77
2023-03-07T09:38:47.071Z,9.23
2023-03-07T09:41:36.483Z,9.43
2023-03-07T09:44:12.581Z,10.00
2023-03-07T09:46:44.346Z,9.70
2023-03-07T09:49:20.255Z,9.30
2023-03-07T09:51:50.684Z,8.97
2023-03-07T09:54:20.240Z,9.40
2023-03-07T09:56:50.616Z,8.80
2023-03-07T09:59:24.325Z,9.10
2023-03-07T10:01:54.595Z,9.57
2023-03-07T10:04:24.806Z,10.00
2023-03-07T10:06:58.296Z,9.03
2023-03-07T10:09:27.276Z,10.57
2023-03-07T10:12:13.569Z,9.10
2023-03-07T10:14:51.205Z,9.57
2023-03-07T10:17:22.397Z,9.93
2023-03-07T10:19:51.503Z,10.17
2023-03-07T10:22:21.640Z,9.90
2023-03-07T10:25:04.100Z,9.53
2023-03-07T10:27:32.945Z,9.70
2023-03-07T10:30:03.352Z,8.90
2023-03-07T10:32:34.359Z,9.30
2023-03-07T10:35:04.238Z,9.37
2023-03-07T10:37:43.934Z,8.67
2023-03-07T10:40:17.874Z,8.87
2023-03-07T10:42:46.226Z,9.77
2023-03-07T10:45:16.787Z,9.40
2023-03-07T10:47:45.278Z,9.10
2023-03-07T10:50:31.778Z,9.40
2023-03-07T10:53:02.013Z,10.73
2023-03-07T10:55:38.322Z,9.13
2023-03-07T10:58:20.832Z,9.43
2023-03-07T11:01:01.658Z,10.73
2023-03-07T11:03:46.049Z,10.87
2023-03-07T11:06:33.120Z,9.53
2023-03-07T11:09:10.060Z,11.57
2023-03-07T11:11:39.122Z,9.93
2023-03-07T11:14:08.954Z,10.47
2023-03-07T11:16:43.560Z,10.20
2023-03-07T11:19:34.699Z,9.73
2023-03-07T11:22:04.725Z,10.47
2023-03-07T11:24:34.876Z,9.90
2023-03-07T11:27:03.765Z,9.77
2023-03-07T11:29:33.710Z,11.40
2023-03-07T11:32:08.226Z,9.90
2023-03-07T11:34:39.349Z,10.43
2023-03-07T11:37:17.556Z,10.00
2023-03-07T11:39:50.339Z,9.67
2023-03-07T11:42:23.070Z,11.00
2023-03-07T11:44:54.340Z,11.73
2023-03-07T11:47:30.766Z,10.80
2023-03-07T11:50:16.343Z,11.50
2023-03-07T11:52:53.305Z,10.00
2023-03-07T11:55:26.904Z,10.53
2023-03-07T11:58:02.907Z,10.80
2023-03-07T12:00:33.680Z,10.80
2023-03-07T12:03:22.897Z,10.60
2023-03-07T12:05:59.839Z,11.27
2023-03-07T12:08:37.332Z,11.43
2023-03-07T12:11:13.652Z,10.80
2023-03-07T12:13:47.612Z,11.43
2023-03-07T12:16:22.952Z,11.03
2023-03-07T12:19:11.451Z,11.27
2023-03-07T12:22:00.308Z,11.50
2023-03-07T12:24:32.286Z,12.03
2023-03-07T12:27:02.423Z,11.20
2023-03-07T12:29:34.846Z,11.97
2023-03-07T12:32:06.574Z,12.53
2023-03-07T12:34:41.157Z,12.20
2023-03-07T12:37:12.926Z,11.23
2023-03-07T12:39:47.121Z,11.00
2023-03-07T12:42:18.569Z,10.97
2023-03-07T12:44:49.216Z,11.17
2023-03-07T12:47:21.479Z,10.30
2023-03-07T12:49:55.280Z,10.73
2023-03-07T12:52:29.207Z,10.53
2023-03-07T12:55:00.998Z,11.33
2023-03-07T12:57:32.201Z,11.00
2023-03-07T13:00:03.710Z,11.30
2023-03-07T13:02:33.666Z,10.03
2023-03-07T13:05:02.328Z,10.60
2023-03-07T13:07:32.054Z,11.37
2023-03-07T13:10:02.768Z,10.87
2023-03-07T13:12:32.374Z,10.30
2023-03-07T13:15:01.304Z,10.27
2023-03-07T13:17:48.249Z,10.63
2023-03-07T13:20:31.987Z,10.13
2023-03-07T13:23:01.938Z,10.40
2023-03-07T13:25:54.403Z,10.77
2023-03-07T13:28:38.206Z,10.93
2023-03-07T13:31:31.085Z,10.50
2023-03-07T13:34:19.461Z,10.90
2023-03-07T13:36:47.836Z,10.50
2023-03-07T13:39:34.773Z,9.93
2023-03-07T13:42:03.259Z,11.33
2023-03-07T13:44:39.459Z,10.30
2023-03-07T13:47:31.806Z,10.23
2023-03-07T13:50:00.208Z,10.27
2023-03-07T13:52:39.637Z,9.80
2023-03-07T13:55:27.569Z,9.50
2023-03-07T13:57:57.355Z,10.20
2023-03-07T14:00:29.949Z,11.33
2023-03-07T14:02:58.481Z,10.03
2023-03-07T14:05:27.219Z,10.90
2023-03-07T14:07:55.800Z,8.67
2023-03-07T14:10:26.431Z,10.40
2023-03-07T14:13:12.635Z,9.50
2023-03-07T14:15:44.912Z,10.27
2023-03-07T14:18:22.914Z,9.10
2023-03-07T14:20:57.332Z,9.23
2023-03-07T14:23:41.440Z,9.50
2023-03-07T14:26:14.521Z,9.03
2023-03-07T14:28:49.617Z,9.20
2023-03-07T14:31:25.338Z,9.43
2023-03-07T14:33:53.991Z,9.40
2023-03-07T14:36:23.914Z,10.10
2023-03-07T14:38:53.117Z,9.80
2023-03-07T14:41:29.675Z,8.93
2023-03-07T14:44:03.947Z,9.70
2023-03-07T14:46:36.774Z,8.57
2023-03-07T14:49:09.467Z,8.77
2023-03-07T14:51:40.491Z,9.70
2023-03-07T14:54:12.604Z,9.73
2023-03-07T14:56:41.241Z,8.80
2023-03-07T14:59:26.074Z,9.60
2023-03-07T15:02:00.304Z,8.60
2023-03-07T15:04:29.975Z,8.30
2023-03-07T15:06:59.140Z,9.03
2023-03-07T15:09:27.968Z,8.77
2023-03-07T15:11:58.346Z,9.17
2023-03-07T15:14:32.179Z,8.50
2023-03-07T15:17:03.387Z,8.60
2023-03-07T15:19:34.244Z,8.30
2023-03-07T15:22:03.851Z,8.17
2023-03-07T15:24:34.139Z,9.47
2023-03-07T15:27:04.481Z,8.57
2023-03-07T15:29:33.555Z,8.80
2023-03-07T15:32:04.199Z,8.10
2023-03-07T15:34:34.051Z,7.73
2023-03-07T15:37:17.214Z,7.87
2023-03-07T15:39:55.946Z,8.50
2023-03-07T15:42:24.252Z,8.13
2023-03-07T15:44:56.419Z,8.33
2023-03-07T15:47:26.855Z,8.10
2023-03-07T15:49:56.705Z,7.10
2023-03-07T15:52:28.787Z,8.37
2023-03-07T15:54:58.161Z,8.40
2023-03-07T15:57:28.462Z,7.60
2023-03-07T15:59:58.622Z,7.97
2023-03-07T16:02:42.495Z,8.10
2023-03-07T16:05:29.417Z,7.93
2023-03-07T16:07:58.611Z,8.70
2023-03-07T16:10:28.393Z,8.47
2023-03-07T16:12:56.978Z,8.40
2023-03-07T16:15:25.863Z,9.60
2023-03-07T16:17:56.701Z,8.07
2023-03-07T16:20:25.952Z,9.47
2023-03-07T16:22:54.376Z,9.40
2023-03-07T16:25:23.557Z,8.00
2023-03-07T16:27:53.292Z,8.77
2023-03-07T16:30:22.905Z,9.57
2023-03-07T16:32:51.447Z,8.53
2023-03-07T16:35:21.704Z,9.00
2023-03-07T16:37:50.223Z,9.00
2023-03-07T16:40:20.195Z,7.50
2023-03-07T16:42:50.384Z,8.03
2023-03-07T16:45:21.166Z,9.50
2023-03-07T16:47:49.863Z,8.87
2023-03-07T16:50:18.925Z,8.40
2023-03-07T16:52:48.635Z,7.30
2023-03-07T16:55:17.628Z,8.57
2023-03-07T16:57:47.122Z,8.80
2023-03-07T17:00:17.151Z,7.90
2023-03-07T17:02:46.046Z,9.03
2023-03-07T17:05:18.004Z,22.00
2023-03-07T17:07:46.593Z,15.70
2023-03-07T17:10:16.462Z,13.93
2023-03-07T17:12:45.218Z,11.60
2023-03-07T17:15:16.442Z,8.17
2023-03-07T17:17:45.250Z,7.60
2023-03-07T17:20:15.150Z,7.33
2023-03-07T17:22:43.762Z,9.17
2023-03-07T17:25:12.396Z,8.27
2023-03-07T17:27:45.133Z,8.03
2023-03-07T17:30:14.983Z,8.00
2023-03-07T17:32:43.538Z,8.43
2023-03-07T17:35:12.184Z,7.80
2023-03-07T17:37:40.552Z,9.70
2023-03-07T17:40:10.316Z,10.20
2023-03-07T17:42:38.980Z,15.03
2023-03-07T17:45:09.982Z,12.50
2023-03-07T17:47:38.465Z,8.47
2023-03-07T17:50:07.316Z,8.40
2023-03-07T17:52:36.031Z,7.67
2023-03-07T17:55:04.604Z,9.00
2023-03-07T17:57:32.950Z,8.60
2023-03-07T18:00:01.206Z,7.60
2023-03-07T18:02:31.023Z,7.53
2023-03-07T18:04:59.374Z,8.03
2023-03-07T18:07:27.735Z,7.60
2023-03-07T18:10:07.124Z,6.73
2023-03-07T18:12:38.984Z,8.40
2023-03-07T18:15:08.201Z,8.13
2023-03-07T18:17:47.365Z,7.40
2023-03-07T18:20:16.935Z,7.90
2023-03-07T18:22:45.496Z,8.87
2023-03-07T18:25:15.632Z,9.07
2023-03-07T18:27:44.172Z,8.10
2023-03-07T18:30:13.895Z,9.77
2023-03-07T18:32:43.661Z,8.13
2023-03-07T18:35:12.420Z,8.37
2023-03-07T18:37:41.709Z,8.00
2023-03-07T18:40:12.049Z,7.40
2023-03-07T18:42:42.361Z,7.93
2023-03-07T18:45:11.671Z,9.13
2023-03-07T18:47:40.096Z,8.47
2023-03-07T18:50:11.098Z,8.57
2023-03-07T18:52:39.532Z,7.27
2023-03-07T18:55:08.200Z,8.60
2023-03-07T18:57:36.566Z,7.90
2023-03-07T19:00:05.971Z,7.90
2023-03-07T19:02:34.427Z,8.10
2023-03-07T19:05:02.791Z,8.00
2023-03-07T19:07:33.298Z,8.77
2023-03-07T19:10:01.701Z,8.50
2023-03-07T19:12:30.001Z,8.17
2023-03-07T19:14:58.320Z,7.87
2023-03-07T19:17:26.662Z,7.63
2023-03-07T19:19:59.164Z,8.13
2023-03-07T19:22:30.183Z,8.50
2023-03-07T19:25:00.123Z,7.80
2023-03-07T19:27:28.852Z,8.90
2023-03-07T19:29:57.293Z,7.70
2023-03-07T19:32:25.634Z,7.77
2023-03-07T19:34:54.012Z,7.03
2023-03-07T19:37:22.399Z,6.67
2023-03-07T19:39:52.747Z,6.53
2023-03-07T19:42:22.554Z,7.03
2023-03-07T19:44:50.897Z,7.23
2023-03-07T19:47:19.319Z,6.80
2023-03-07T19:49:48.068Z,7.57
2023-03-07T19:52:16.543Z,7.27
2023-03-07T19:54:45.471Z,7.13
2023-03-07T19:57:16.074Z,7.33
2023-03-07T19:59:46.103Z,7.23
2023-03-07T20:02:15.303Z,8.30
2023-03-07T20:04:43.698Z,8.10
2023-03-07T20:07:12.319Z,6.80
2023-03-07T20:09:40.629Z,7.50
2023-03-07T20:12:10.159Z,8.97
2023-03-07T20:14:42.750Z,7.87
2023-03-07T20:17:13.322Z,8.10
2023-03-07T20:19:41.702Z,6.83
2023-03-07T20:22:09.991Z,8.30
2023-03-07T20:24:38.410Z,8.40
2023-03-07T20:27:06.705Z,8.50
2023-03-07T20:29:35.045Z,8.57
2023-03-07T20:32:03.527Z,8.77
2023-03-07T20:34:33.316Z,8.57
2023-03-07T20:37:01.703Z,8.90
2023-03-07T20:39:30.128Z,7.90
2023-03-07T20:41:58.503Z,8.13
2023-03-07T20:44:26.873Z,9.03
2023-03-07T20:46:55.682Z,8.30
2023-03-07T20:49:24.148Z,8.70
2023-03-07T20:51:53.927Z,9.10
2023-03-07T20:54:22.234Z,8.37
2023-03-07T20:56:50.618Z,9.33
2023-03-07T20:59:19.874Z,9.27
2023-03-07T21:01:48.859Z,9.30
2023-03-07T21:04:20.345Z,9.43
2023-03-07T21:06:49.134Z,8.43
2023-03-07T21:09:19.727Z,7.67
2023-03-07T21:11:49.064Z,7.60
2023-03-07T21:14:17.950Z,9.63
2023-03-07T21:16:46.319Z,11.20
2023-03-07T21:19:15.038Z,9.93
2023-03-07T21:21:43.827Z,11.33
2023-03-07T21:24:13.130Z,10.83
2023-03-07T21:26:42.778Z,11.37
2023-03-07T21:29:11.349Z,11.10
2023-03-07T21:31:39.965Z,10.57
2023-03-07T21:34:09.195Z,10.40
2023-03-07T21:36:37.603Z,11.97
2023-03-07T21:39:07.973Z,10.63
2023-03-07T21:41:36.488Z,10.80
2023-03-07T21:44:06.348Z,10.13
2023-03-07T21:46:35.098Z,10.60
2023-03-07T21:49:03.519Z,11.10
2023-03-07T21:51:31.861Z,9.90
2023-03-07T21:54:00.252Z,10.10
2023-03-07T21:56:28.725Z,10.53
2023-03-07T21:58:57.144Z,10.77
2023-03-07T22:01:27.776Z,11.10
2023-03-07T22:03:57.443Z,12.13
2023-03-07T22:06:26.213Z,10.83
2023-03-07T22:08:54.702Z,10.43
2023-03-07T22:11:23.126Z,10.30
2023-03-07T22:13:51.668Z,11.57
2023-03-07T22:16:21.333Z,10.30
2023-03-07T22:18:54.552Z,9.67
2023-03-07T22:21:24.969Z,10.20
2023-03-07T22:23:57.637Z,11.50
2023-03-07T22:26:26.356Z,10.17
2023-03-07T22:28:55.330Z,12.53
2023-03-07T22:31:23.854Z,11.63
2023-03-07T22:33:54.030Z,10.73
2023-03-07T22:36:22.467Z,11.33
2023-03-07T22:38:54.548Z,11.50
2023-03-07T22:41:23.322Z,10.43
2023-03-07T22:43:52.507Z,10.70
2023-03-07T22:46:21.196Z,10.53
2023-03-07T22:48:52.979Z,10.83
2023-03-07T22:51:23.294Z,10.23
2023-03-07T22:53:51.959Z,11.27
2023-03-07T22:56:21.215Z,10.40
2023-03-07T22:58:49.606Z,11.53
2023-03-07T23:01:20.152Z,10.50
2023-03-07T23:03:48.615Z,10.50
2023-03-07T23:06:17.445Z,10.43
2023-03-07T23:08:47.459Z,10.20
2023-03-07T23:11:16.195Z,11.23
2023-03-07T23:13:44.993Z,10.60
2023-03-07T23:16:14.573Z,10.73
2023-03-07T23:18:43.382Z,11.17
2023-03-07T23:21:12.400Z,11.00
2023-03-07T23:23:40.815Z,10.53
2023-03-07T23:26:10.755Z,10.10
2023-03-07T23:28:39.100Z,10.47
2023-03-07T23:31:07.718Z,10.33
2023-03-07T23:33:36.062Z,9.90
2023-03-07T23:36:04.556Z,9.40
2023-03-07T23:38:32.902Z,9.83
2023-03-07T23:41:01.306Z,9.27
2023-03-07T23:43:31.162Z,9.83
2023-03-07T23:45:59.606Z,9.17
2023-03-07T23:48:28.072Z,10.10
2023-03-07T23:50:56.502Z,10.00
2023-03-07T23:53:24.872Z,9.20
2023-03-07T23:55:53.210Z,10.23
2023-03-07T23:58:21.543Z,9.27
